sensor_id;sensor_type;location;lat;lon;timestamp;P1;durP1;ratioP1;P2;durP2;ratioP2
10904;SDS011;5505;51.450;9.254;2023-04-25T00:00:53;9.03;;;4.90;;
10904;SDS011;5505;51.450;9.254;2023-04-25T00:03:42;8.20;;;5.03;;
10904;SDS011;5505;51.450;9.254;2023-04-25T00:06:29;7.10;;;5.20;;
10904;SDS011;5505;51.450;9.254;2023-04-25T00:09:16;9.43;;;5.17;;
10904;SDS011;5505;51.450;9.254;2023-04-25T00:12:04;8.10;;;5.00;;
10904;SDS011;5505;51.450;9.254;2023-04-25T00:14:51;7.93;;;5.50;;
10904;SDS011;5505;51.450;9.254;2023-04-25T00:17:38;7.17;;;5.90;;
10904;SDS011;5505;51.450;9.254;2023-04-25T00:20:26;8.17;;;6.10;;
10904;SDS011;5505;51.450;9.254;2023-04-25T00:23:15;7.20;;;5.80;;
10904;SDS011;5505;51.450;9.254;2023-04-25T00:26:03;10.63;;;6.60;;
10904;SDS011;5505;51.450;9.254;2023-04-25T00:28:50;10.93;;;6.27;;
10904;SDS011;5505;51.450;9.254;2023-04-25T00:31:37;9.73;;;6.50;;
10904;SDS011;5505;51.450;9.254;2023-04-25T00:34:24;9.57;;;5.90;;
10904;SDS011;5505;51.450;9.254;2023-04-25T00:37:13;9.37;;;6.20;;
10904;SDS011;5505;51.450;9.254;2023-04-25T00:40:01;12.30;;;6.47;;
10904;SDS011;5505;51.450;9.254;2023-04-25T00:42:51;13.57;;;7.30;;
10904;SDS011;5505;51.450;9.254;2023-04-25T00:45:38;11.03;;;6.93;;
10904;SDS011;5505;51.450;9.254;2023-04-25T00:48:26;11.67;;;7.37;;
10904;SDS011;5505;51.450;9.254;2023-04-25T00:51:14;9.13;;;6.77;;
10904;SDS011;5505;51.450;9.254;2023-04-25T00:54:04;10.63;;;6.83;;
10904;SDS011;5505;51.450;9.254;2023-04-25T00:56:51;12.47;;;7.30;;
10904;SDS011;5505;51.450;9.254;2023-04-25T00:59:38;11.37;;;6.43;;
10904;SDS011;5505;51.450;9.254;2023-04-25T01:02:25;11.63;;;6.80;;
10904;SDS011;5505;51.450;9.254;2023-04-25T01:05:13;11.90;;;7.03;;
10904;SDS011;5505;51.450;9.254;2023-04-25T01:08:01;10.43;;;7.00;;
10904;SDS011;5505;51.450;9.254;2023-04-25T01:10:49;11.17;;;7.47;;
10904;SDS011;5505;51.450;9.254;2023-04-25T01:13:36;12.07;;;7.07;;
10904;SDS011;5505;51.450;9.254;2023-04-25T01:16:23;15.87;;;7.00;;
10904;SDS011;5505;51.450;9.254;2023-04-25T01:19:11;10.30;;;6.90;;
10904;SDS011;5505;51.450;9.254;2023-04-25T01:22:04;12.70;;;6.43;;
10904;SDS011;5505;51.450;9.254;2023-04-25T01:24:51;12.03;;;6.87;;
10904;SDS011;5505;51.450;9.254;2023-04-25T01:27:39;12.80;;;7.40;;
10904;SDS011;5505;51.450;9.254;2023-04-25T01:30:26;7.97;;;6.70;;
10904;SDS011;5505;51.450;9.254;2023-04-25T01:33:14;13.43;;;7.80;;
10904;SDS011;5505;51.450;9.254;2023-04-25T01:36:01;12.73;;;7.40;;
10904;SDS011;5505;51.450;9.254;2023-04-25T01:38:49;13.67;;;7.77;;
10904;SDS011;5505;51.450;9.254;2023-04-25T01:41:37;13.30;;;7.50;;
10904;SDS011;5505;51.450;9.254;2023-04-25T01:44:24;12.40;;;6.77;;
10904;SDS011;5505;51.450;9.254;2023-04-25T01:47:11;11.20;;;6.43;;
10904;SDS011;5505;51.450;9.254;2023-04-25T01:49:58;13.80;;;7.13;;
10904;SDS011;5505;51.450;9.254;2023-04-25T01:52:45;11.90;;;6.90;;
10904;SDS011;5505;51.450;9.254;2023-04-25T01:55:34;11.30;;;7.03;;
10904;SDS011;5505;51.450;9.254;2023-04-25T01:58:21;11.40;;;7.27;;
10904;SDS011;5505;51.450;9.254;2023-04-25T02:01:08;13.10;;;7.70;;
10904;SDS011;5505;51.450;9.254;2023-04-25T02:03:55;10.93;;;7.03;;
10904;SDS011;5505;51.450;9.254;2023-04-25T02:06:42;13.20;;;7.60;;
10904;SDS011;5505;51.450;9.254;2023-04-25T02:09:30;13.70;;;7.43;;
10904;SDS011;5505;51.450;9.254;2023-04-25T02:12:18;11.10;;;7.13;;
10904;SDS011;5505;51.450;9.254;2023-04-25T02:15:06;14.03;;;7.07;;
10904;SDS011;5505;51.450;9.254;2023-04-25T02:17:53;14.00;;;7.20;;
10904;SDS011;5505;51.450;9.254;2023-04-25T02:20:40;12.83;;;7.03;;
10904;SDS011;5505;51.450;9.254;2023-04-25T02:23:27;12.47;;;6.93;;
10904;SDS011;5505;51.450;9.254;2023-04-25T02:26:14;13.30;;;7.13;;
10904;SDS011;5505;51.450;9.254;2023-04-25T02:29:03;11.30;;;6.87;;
10904;SDS011;5505;51.450;9.254;2023-04-25T02:31:50;10.80;;;6.53;;
10904;SDS011;5505;51.450;9.254;2023-04-25T02:34:37;9.23;;;5.80;;
10904;SDS011;5505;51.450;9.254;2023-04-25T02:37:25;13.70;;;6.30;;
10904;SDS011;5505;51.450;9.254;2023-04-25T02:40:12;10.70;;;5.83;;
10904;SDS011;5505;51.450;9.254;2023-04-25T02:42:59;8.43;;;5.03;;
10904;SDS011;5505;51.450;9.254;2023-04-25T02:45:47;8.97;;;5.90;;
10904;SDS011;5505;51.450;9.254;2023-04-25T02:48:35;9.20;;;6.10;;
10904;SDS011;5505;51.450;9.254;2023-04-25T02:51:22;13.00;;;5.90;;
10904;SDS011;5505;51.450;9.254;2023-04-25T02:54:09;12.87;;;6.20;;
10904;SDS011;5505;51.450;9.254;2023-04-25T02:56:56;9.03;;;5.90;;
10904;SDS011;5505;51.450;9.254;2023-04-25T02:59:43;10.33;;;5.37;;
10904;SDS011;5505;51.450;9.254;2023-04-25T03:02:31;11.93;;;5.90;;
10904;SDS011;5505;51.450;9.254;2023-04-25T03:05:18;9.03;;;6.03;;
10904;SDS011;5505;51.450;9.254;2023-04-25T03:08:06;10.43;;;5.50;;
10904;SDS011;5505;51.450;9.254;2023-04-25T03:10:53;9.90;;;5.95;;
10904;SDS011;5505;51.450;9.254;2023-04-25T03:13:40;13.90;;;5.73;;
10904;SDS011;5505;51.450;9.254;2023-04-25T03:16:27;10.30;;;5.73;;
10904;SDS011;5505;51.450;9.254;2023-04-25T03:19:16;8.93;;;5.23;;
10904;SDS011;5505;51.450;9.254;2023-04-25T03:22:03;10.23;;;5.80;;
10904;SDS011;5505;51.450;9.254;2023-04-25T03:24:50;10.63;;;5.93;;
10904;SDS011;5505;51.450;9.254;2023-04-25T03:27:37;9.73;;;4.90;;
10904;SDS011;5505;51.450;9.254;2023-04-25T03:30:24;10.20;;;6.30;;
10904;SDS011;5505;51.450;9.254;2023-04-25T03:33:12;8.43;;;5.90;;
10904;SDS011;5505;51.450;9.254;2023-04-25T03:36:00;8.77;;;5.80;;
10904;SDS011;5505;51.450;9.254;2023-04-25T03:38:47;9.30;;;6.27;;
10904;SDS011;5505;51.450;9.254;2023-04-25T03:41:35;8.50;;;6.00;;
10904;SDS011;5505;51.450;9.254;2023-04-25T03:44:22;9.47;;;5.40;;
10904;SDS011;5505;51.450;9.254;2023-04-25T03:47:10;8.07;;;5.10;;
10904;SDS011;5505;51.450;9.254;2023-04-25T03:49:57;8.03;;;5.57;;
10904;SDS011;5505;51.450;9.254;2023-04-25T03:52:47;6.70;;;5.13;;
10904;SDS011;5505;51.450;9.254;2023-04-25T03:55:35;6.90;;;4.73;;
10904;SDS011;5505;51.450;9.254;2023-04-25T03:58:22;8.37;;;5.20;;
10904;SDS011;5505;51.450;9.254;2023-04-25T04:01:09;5.87;;;4.83;;
10904;SDS011;5505;51.450;9.254;2023-04-25T04:03:56;7.77;;;4.67;;
10904;SDS011;5505;51.450;9.254;2023-04-25T04:06:43;7.03;;;4.43;;
10904;SDS011;5505;51.450;9.254;2023-04-25T04:09:32;6.17;;;4.17;;
10904;SDS011;5505;51.450;9.254;2023-04-25T04:12:19;5.80;;;4.10;;
10904;SDS011;5505;51.450;9.254;2023-04-25T04:15:06;5.23;;;4.40;;
10904;SDS011;5505;51.450;9.254;2023-04-25T04:17:54;7.50;;;4.33;;
10904;SDS011;5505;51.450;9.254;2023-04-25T04:20:41;6.60;;;4.50;;
10904;SDS011;5505;51.450;9.254;2023-04-25T04:23:28;5.50;;;3.80;;
10904;SDS011;5505;51.450;9.254;2023-04-25T04:26:16;5.97;;;3.63;;
10904;SDS011;5505;51.450;9.254;2023-04-25T04:29:03;4.43;;;3.83;;
10904;SDS011;5505;51.450;9.254;2023-04-25T04:31:52;5.43;;;3.80;;
10904;SDS011;5505;51.450;9.254;2023-04-25T04:34:39;3.70;;;3.30;;
10904;SDS011;5505;51.450;9.254;2023-04-25T04:37:26;4.20;;;3.47;;
10904;SDS011;5505;51.450;9.254;2023-04-25T04:40:13;5.73;;;3.83;;
10904;SDS011;5505;51.450;9.254;2023-04-25T04:43:02;4.10;;;3.50;;
10904;SDS011;5505;51.450;9.254;2023-04-25T04:45:49;5.37;;;3.83;;
10904;SDS011;5505;51.450;9.254;2023-04-25T04:48:37;4.20;;;3.50;;
10904;SDS011;5505;51.450;9.254;2023-04-25T04:51:25;4.40;;;3.60;;
10904;SDS011;5505;51.450;9.254;2023-04-25T04:54:12;4.67;;;4.10;;
10904;SDS011;5505;51.450;9.254;2023-04-25T04:56:59;5.63;;;3.43;;
10904;SDS011;5505;51.450;9.254;2023-04-25T04:59:47;4.67;;;4.27;;
10904;SDS011;5505;51.450;9.254;2023-04-25T05:02:35;4.37;;;3.70;;
10904;SDS011;5505;51.450;9.254;2023-04-25T05:05:22;5.00;;;3.83;;
10904;SDS011;5505;51.450;9.254;2023-04-25T05:08:09;4.70;;;3.90;;
10904;SDS011;5505;51.450;9.254;2023-04-25T05:10:56;4.47;;;4.03;;
10904;SDS011;5505;51.450;9.254;2023-04-25T05:13:44;5.77;;;4.23;;
10904;SDS011;5505;51.450;9.254;2023-04-25T05:16:33;7.70;;;5.10;;
10904;SDS011;5505;51.450;9.254;2023-04-25T05:19:20;4.80;;;4.30;;
10904;SDS011;5505;51.450;9.254;2023-04-25T05:22:07;6.73;;;4.53;;
10904;SDS011;5505;51.450;9.254;2023-04-25T05:24:54;5.53;;;4.07;;
10904;SDS011;5505;51.450;9.254;2023-04-25T05:27:41;4.20;;;2.53;;
10904;SDS011;5505;51.450;9.254;2023-04-25T05:30:28;2.80;;;2.10;;
10904;SDS011;5505;51.450;9.254;2023-04-25T05:33:17;3.73;;;2.37;;
10904;SDS011;5505;51.450;9.254;2023-04-25T05:36:05;3.03;;;2.47;;
10904;SDS011;5505;51.450;9.254;2023-04-25T05:38:52;3.67;;;2.50;;
10904;SDS011;5505;51.450;9.254;2023-04-25T05:41:39;3.43;;;2.00;;
10904;SDS011;5505;51.450;9.254;2023-04-25T05:44:26;2.30;;;2.10;;
10904;SDS011;5505;51.450;9.254;2023-04-25T05:47:13;2.70;;;2.03;;
10904;SDS011;5505;51.450;9.254;2023-04-25T05:50:02;2.60;;;2.00;;
10904;SDS011;5505;51.450;9.254;2023-04-25T05:52:50;4.10;;;1.90;;
10904;SDS011;5505;51.450;9.254;2023-04-25T05:55:37;2.57;;;2.10;;
10904;SDS011;5505;51.450;9.254;2023-04-25T05:58:24;4.67;;;2.40;;
10904;SDS011;5505;51.450;9.254;2023-04-25T06:01:11;5.63;;;2.27;;
10904;SDS011;5505;51.450;9.254;2023-04-25T06:03:59;4.43;;;2.33;;
10904;SDS011;5505;51.450;9.254;2023-04-25T06:06:47;7.30;;;2.60;;
10904;SDS011;5505;51.450;9.254;2023-04-25T06:09:35;7.73;;;2.40;;
10904;SDS011;5505;51.450;9.254;2023-04-25T06:12:23;3.83;;;2.80;;
10904;SDS011;5505;51.450;9.254;2023-04-25T06:15:12;5.57;;;2.97;;
10904;SDS011;5505;51.450;9.254;2023-04-25T06:18:00;6.30;;;2.87;;
10904;SDS011;5505;51.450;9.254;2023-04-25T06:20:47;5.20;;;2.90;;
10904;SDS011;5505;51.450;9.254;2023-04-25T06:23:36;5.47;;;3.40;;
10904;SDS011;5505;51.450;9.254;2023-04-25T06:26:23;8.33;;;3.60;;
10904;SDS011;5505;51.450;9.254;2023-04-25T06:29:10;5.53;;;3.20;;
10904;SDS011;5505;51.450;9.254;2023-04-25T06:31:57;6.97;;;4.17;;
10904;SDS011;5505;51.450;9.254;2023-04-25T06:34:44;9.63;;;4.20;;
10904;SDS011;5505;51.450;9.254;2023-04-25T06:37:31;7.43;;;3.97;;
10904;SDS011;5505;51.450;9.254;2023-04-25T06:40:20;8.03;;;3.93;;
10904;SDS011;5505;51.450;9.254;2023-04-25T06:43:07;12.87;;;4.10;;
10904;SDS011;5505;51.450;9.254;2023-04-25T06:45:54;10.20;;;3.90;;
10904;SDS011;5505;51.450;9.254;2023-04-25T06:48:41;11.50;;;4.37;;
10904;SDS011;5505;51.450;9.254;2023-04-25T06:51:29;11.77;;;4.60;;
10904;SDS011;5505;51.450;9.254;2023-04-25T06:54:16;11.57;;;4.30;;
10904;SDS011;5505;51.450;9.254;2023-04-25T06:57:05;9.23;;;3.83;;
10904;SDS011;5505;51.450;9.254;2023-04-25T06:59:52;11.70;;;3.70;;
10904;SDS011;5505;51.450;9.254;2023-04-25T07:02:39;12.57;;;4.30;;
10904;SDS011;5505;51.450;9.254;2023-04-25T07:05:28;14.43;;;4.77;;
10904;SDS011;5505;51.450;9.254;2023-04-25T07:08:15;12.33;;;4.80;;
10904;SDS011;5505;51.450;9.254;2023-04-25T07:11:02;10.73;;;4.57;;
10904;SDS011;5505;51.450;9.254;2023-04-25T07:13:51;18.40;;;4.33;;
10904;SDS011;5505;51.450;9.254;2023-04-25T07:16:38;16.97;;;4.07;;
10904;SDS011;5505;51.450;9.254;2023-04-25T07:19:25;9.63;;;3.93;;
10904;SDS011;5505;51.450;9.254;2023-04-25T07:22:14;16.20;;;4.33;;
10904;SDS011;5505;51.450;9.254;2023-04-25T07:25:02;13.63;;;4.10;;
10904;SDS011;5505;51.450;9.254;2023-04-25T07:27:49;16.17;;;4.53;;
10904;SDS011;5505;51.450;9.254;2023-04-25T07:30:37;16.53;;;3.93;;
10904;SDS011;5505;51.450;9.254;2023-04-25T07:33:25;10.80;;;3.87;;
10904;SDS011;5505;51.450;9.254;2023-04-25T07:36:12;14.10;;;4.27;;
10904;SDS011;5505;51.450;9.254;2023-04-25T07:39:00;10.80;;;3.40;;
10904;SDS011;5505;51.450;9.254;2023-04-25T07:41:47;15.77;;;3.97;;
10904;SDS011;5505;51.450;9.254;2023-04-25T07:44:34;12.27;;;3.53;;
10904;SDS011;5505;51.450;9.254;2023-04-25T07:47:25;11.27;;;3.40;;
10904;SDS011;5505;51.450;9.254;2023-04-25T07:50:12;12.63;;;4.00;;
10904;SDS011;5505;51.450;9.254;2023-04-25T07:52:59;11.87;;;3.33;;
10904;SDS011;5505;51.450;9.254;2023-04-25T07:55:46;11.73;;;3.77;;
10904;SDS011;5505;51.450;9.254;2023-04-25T07:58:33;8.87;;;3.80;;
10904;SDS011;5505;51.450;9.254;2023-04-25T08:01:20;14.47;;;3.57;;
10904;SDS011;5505;51.450;9.254;2023-04-25T08:04:09;10.60;;;3.30;;
10904;SDS011;5505;51.450;9.254;2023-04-25T08:06:56;11.43;;;3.40;;
10904;SDS011;5505;51.450;9.254;2023-04-25T08:09:43;12.40;;;3.40;;
10904;SDS011;5505;51.450;9.254;2023-04-25T08:12:30;11.50;;;3.17;;
10904;SDS011;5505;51.450;9.254;2023-04-25T08:15:17;8.97;;;3.20;;
10904;SDS011;5505;51.450;9.254;2023-04-25T08:18:05;9.77;;;2.93;;
10904;SDS011;5505;51.450;9.254;2023-04-25T08:20:53;10.87;;;3.27;;
10904;SDS011;5505;51.450;9.254;2023-04-25T08:23:40;12.50;;;3.30;;
10904;SDS011;5505;51.450;9.254;2023-04-25T08:26:28;12.80;;;3.37;;
10904;SDS011;5505;51.450;9.254;2023-04-25T08:29:15;11.93;;;3.43;;
10904;SDS011;5505;51.450;9.254;2023-04-25T08:32:02;12.87;;;3.13;;
10904;SDS011;5505;51.450;9.254;2023-04-25T08:34:49;8.90;;;3.20;;
10904;SDS011;5505;51.450;9.254;2023-04-25T08:37:40;9.80;;;3.47;;
10904;SDS011;5505;51.450;9.254;2023-04-25T08:40:27;10.87;;;2.70;;
10904;SDS011;5505;51.450;9.254;2023-04-25T08:43:15;7.40;;;2.80;;
10904;SDS011;5505;51.450;9.254;2023-04-25T08:46:04;9.60;;;3.00;;
10904;SDS011;5505;51.450;9.254;2023-04-25T08:48:52;9.37;;;2.97;;
10904;SDS011;5505;51.450;9.254;2023-04-25T08:51:43;11.23;;;3.00;;
10904;SDS011;5505;51.450;9.254;2023-04-25T08:54:32;10.13;;;2.93;;
10904;SDS011;5505;51.450;9.254;2023-04-25T08:57:20;10.00;;;2.80;;
10904;SDS011;5505;51.450;9.254;2023-04-25T09:00:08;7.97;;;2.70;;
10904;SDS011;5505;51.450;9.254;2023-04-25T09:02:55;10.50;;;3.30;;
10904;SDS011;5505;51.450;9.254;2023-04-25T09:05:43;7.00;;;2.37;;
10904;SDS011;5505;51.450;9.254;2023-04-25T09:08:30;6.43;;;2.33;;
10904;SDS011;5505;51.450;9.254;2023-04-25T09:11:19;13.43;;;2.90;;
10904;SDS011;5505;51.450;9.254;2023-04-25T09:14:13;7.23;;;2.37;;
10904;SDS011;5505;51.450;9.254;2023-04-25T09:17:01;13.43;;;2.70;;
10904;SDS011;5505;51.450;9.254;2023-04-25T09:19:48;7.53;;;2.53;;
10904;SDS011;5505;51.450;9.254;2023-04-25T09:22:36;11.40;;;2.47;;
10904;SDS011;5505;51.450;9.254;2023-04-25T09:25:23;9.67;;;2.60;;
10904;SDS011;5505;51.450;9.254;2023-04-25T09:28:12;11.83;;;2.83;;
10904;SDS011;5505;51.450;9.254;2023-04-25T09:30:59;8.63;;;2.60;;
10904;SDS011;5505;51.450;9.254;2023-04-25T09:33:46;12.33;;;2.87;;
10904;SDS011;5505;51.450;9.254;2023-04-25T09:36:34;8.83;;;2.60;;
10904;SDS011;5505;51.450;9.254;2023-04-25T09:39:21;11.73;;;2.70;;
10904;SDS011;5505;51.450;9.254;2023-04-25T09:42:09;7.77;;;2.60;;
10904;SDS011;5505;51.450;9.254;2023-04-25T09:44:57;8.93;;;2.43;;
10904;SDS011;5505;51.450;9.254;2023-04-25T09:47:46;9.70;;;2.57;;
10904;SDS011;5505;51.450;9.254;2023-04-25T09:50:35;6.57;;;2.40;;
10904;SDS011;5505;51.450;9.254;2023-04-25T09:53:22;6.47;;;2.43;;
10904;SDS011;5505;51.450;9.254;2023-04-25T09:56:10;8.47;;;2.47;;
10904;SDS011;5505;51.450;9.254;2023-04-25T09:58:57;11.20;;;2.23;;
10904;SDS011;5505;51.450;9.254;2023-04-25T10:01:46;7.10;;;1.80;;
10904;SDS011;5505;51.450;9.254;2023-04-25T10:04:35;5.53;;;2.00;;
10904;SDS011;5505;51.450;9.254;2023-04-25T10:07:22;5.33;;;1.90;;
10904;SDS011;5505;51.450;9.254;2023-04-25T10:10:11;8.23;;;2.00;;
10904;SDS011;5505;51.450;9.254;2023-04-25T10:12:59;6.93;;;1.80;;
10904;SDS011;5505;51.450;9.254;2023-04-25T10:15:47;7.43;;;2.10;;
10904;SDS011;5505;51.450;9.254;2023-04-25T10:18:35;6.50;;;1.77;;
10904;SDS011;5505;51.450;9.254;2023-04-25T10:21:22;6.37;;;1.70;;
10904;SDS011;5505;51.450;9.254;2023-04-25T10:24:11;6.60;;;1.63;;
10904;SDS011;5505;51.450;9.254;2023-04-25T10:26:58;5.20;;;1.33;;
10904;SDS011;5505;51.450;9.254;2023-04-25T10:29:46;4.73;;;1.43;;
10904;SDS011;5505;51.450;9.254;2023-04-25T10:32:47;7.13;;;1.60;;
10904;SDS011;5505;51.450;9.254;2023-04-25T10:35:37;3.23;;;1.30;;
10904;SDS011;5505;51.450;9.254;2023-04-25T10:38:25;5.10;;;1.50;;
10904;SDS011;5505;51.450;9.254;2023-04-25T10:41:13;4.33;;;1.20;;
10904;SDS011;5505;51.450;9.254;2023-04-25T10:44:00;5.93;;;2.00;;
10904;SDS011;5505;51.450;9.254;2023-04-25T10:46:47;4.43;;;1.30;;
10904;SDS011;5505;51.450;9.254;2023-04-25T10:49:35;7.17;;;1.70;;
10904;SDS011;5505;51.450;9.254;2023-04-25T10:52:26;2.87;;;1.33;;
10904;SDS011;5505;51.450;9.254;2023-04-25T10:55:14;4.73;;;1.40;;
10904;SDS011;5505;51.450;9.254;2023-04-25T10:58:01;3.43;;;1.33;;
10904;SDS011;5505;51.450;9.254;2023-04-25T11:00:49;3.53;;;1.40;;
10904;SDS011;5505;51.450;9.254;2023-04-25T11:03:40;4.40;;;1.33;;
10904;SDS011;5505;51.450;9.254;2023-04-25T11:06:29;7.03;;;1.67;;
10904;SDS011;5505;51.450;9.254;2023-04-25T11:09:18;4.87;;;1.33;;
10904;SDS011;5505;51.450;9.254;2023-04-25T11:12:06;9.80;;;1.80;;
10904;SDS011;5505;51.450;9.254;2023-04-25T11:14:58;3.63;;;1.60;;
10904;SDS011;5505;51.450;9.254;2023-04-25T11:17:46;4.43;;;1.43;;
10904;SDS011;5505;51.450;9.254;2023-04-25T11:20:33;2.00;;;1.20;;
10904;SDS011;5505;51.450;9.254;2023-04-25T11:23:20;4.60;;;1.17;;
10904;SDS011;5505;51.450;9.254;2023-04-25T11:26:08;3.73;;;1.27;;
10904;SDS011;5505;51.450;9.254;2023-04-25T11:28:59;5.93;;;1.63;;
10904;SDS011;5505;51.450;9.254;2023-04-25T11:31:46;5.03;;;1.30;;
10904;SDS011;5505;51.450;9.254;2023-04-25T11:34:33;5.03;;;1.60;;
10904;SDS011;5505;51.450;9.254;2023-04-25T11:37:21;4.83;;;1.40;;
10904;SDS011;5505;51.450;9.254;2023-04-25T11:40:08;7.67;;;1.73;;
10904;SDS011;5505;51.450;9.254;2023-04-25T11:42:59;5.30;;;1.47;;
10904;SDS011;5505;51.450;9.254;2023-04-25T11:45:47;5.47;;;1.60;;
10904;SDS011;5505;51.450;9.254;2023-04-25T11:48:36;6.53;;;2.10;;
10904;SDS011;5505;51.450;9.254;2023-04-25T11:51:23;4.40;;;1.73;;
10904;SDS011;5505;51.450;9.254;2023-04-25T11:54:11;4.03;;;1.50;;
10904;SDS011;5505;51.450;9.254;2023-04-25T11:56:58;4.90;;;1.67;;
10904;SDS011;5505;51.450;9.254;2023-04-25T11:59:47;6.00;;;2.00;;
10904;SDS011;5505;51.450;9.254;2023-04-25T12:02:34;4.83;;;1.90;;
10904;SDS011;5505;51.450;9.254;2023-04-25T12:05:23;3.77;;;1.70;;
10904;SDS011;5505;51.450;9.254;2023-04-25T12:08:11;4.60;;;1.60;;
10904;SDS011;5505;51.450;9.254;2023-04-25T12:10:58;5.63;;;2.03;;
10904;SDS011;5505;51.450;9.254;2023-04-25T12:13:45;4.53;;;1.67;;
10904;SDS011;5505;51.450;9.254;2023-04-25T12:16:43;4.77;;;1.70;;
10904;SDS011;5505;51.450;9.254;2023-04-25T12:19:34;6.00;;;1.70;;
10904;SDS011;5505;51.450;9.254;2023-04-25T12:22:22;4.30;;;1.10;;
10904;SDS011;5505;51.450;9.254;2023-04-25T12:25:10;6.10;;;1.63;;
10904;SDS011;5505;51.450;9.254;2023-04-25T12:28:08;5.60;;;1.70;;
10904;SDS011;5505;51.450;9.254;2023-04-25T12:30:56;5.23;;;1.60;;
10904;SDS011;5505;51.450;9.254;2023-04-25T12:33:45;6.23;;;1.53;;
10904;SDS011;5505;51.450;9.254;2023-04-25T12:36:32;5.13;;;1.63;;
10904;SDS011;5505;51.450;9.254;2023-04-25T12:39:20;2.87;;;1.63;;
10904;SDS011;5505;51.450;9.254;2023-04-25T12:42:07;5.47;;;1.67;;
10904;SDS011;5505;51.450;9.254;2023-04-25T12:44:56;8.60;;;1.10;;
10904;SDS011;5505;51.450;9.254;2023-04-25T12:47:43;3.53;;;1.13;;
10904;SDS011;5505;51.450;9.254;2023-04-25T12:50:32;6.43;;;1.40;;
10904;SDS011;5505;51.450;9.254;2023-04-25T12:53:19;5.37;;;1.70;;
10904;SDS011;5505;51.450;9.254;2023-04-25T12:56:07;2.53;;;1.60;;
10904;SDS011;5505;51.450;9.254;2023-04-25T12:58:54;2.33;;;1.33;;
10904;SDS011;5505;51.450;9.254;2023-04-25T13:01:41;7.07;;;1.50;;
10904;SDS011;5505;51.450;9.254;2023-04-25T13:04:29;4.23;;;1.20;;
10904;SDS011;5505;51.450;9.254;2023-04-25T13:07:17;2.07;;;1.20;;
10904;SDS011;5505;51.450;9.254;2023-04-25T13:10:05;2.60;;;1.30;;
10904;SDS011;5505;51.450;9.254;2023-04-25T13:12:52;2.90;;;1.50;;
10904;SDS011;5505;51.450;9.254;2023-04-25T13:15:39;2.37;;;1.40;;
10904;SDS011;5505;51.450;9.254;2023-04-25T13:18:27;6.83;;;1.40;;
10904;SDS011;5505;51.450;9.254;2023-04-25T13:21:14;3.90;;;1.50;;
10904;SDS011;5505;51.450;9.254;2023-04-25T13:24:03;5.57;;;1.50;;
10904;SDS011;5505;51.450;9.254;2023-04-25T13:26:50;1.83;;;1.10;;
10904;SDS011;5505;51.450;9.254;2023-04-25T13:29:37;4.90;;;1.50;;
10904;SDS011;5505;51.450;9.254;2023-04-25T13:32:25;4.97;;;1.40;;
10904;SDS011;5505;51.450;9.254;2023-04-25T13:35:12;6.43;;;1.30;;
10904;SDS011;5505;51.450;9.254;2023-04-25T13:38:00;4.23;;;1.83;;
10904;SDS011;5505;51.450;9.254;2023-04-25T13:40:48;4.47;;;1.70;;
10904;SDS011;5505;51.450;9.254;2023-04-25T13:43:37;3.73;;;2.03;;
10904;SDS011;5505;51.450;9.254;2023-04-25T13:46:24;7.10;;;1.67;;
10904;SDS011;5505;51.450;9.254;2023-04-25T13:49:12;3.70;;;1.47;;
10904;SDS011;5505;51.450;9.254;2023-04-25T13:52:00;4.53;;;1.53;;
10904;SDS011;5505;51.450;9.254;2023-04-25T13:54:47;3.67;;;1.33;;
10904;SDS011;5505;51.450;9.254;2023-04-25T13:57:36;5.77;;;1.67;;
10904;SDS011;5505;51.450;9.254;2023-04-25T14:00:23;3.23;;;1.10;;
10904;SDS011;5505;51.450;9.254;2023-04-25T14:03:10;3.77;;;1.80;;
10904;SDS011;5505;51.450;9.254;2023-04-25T14:05:57;3.37;;;1.33;;
10904;SDS011;5505;51.450;9.254;2023-04-25T14:08:44;2.97;;;1.20;;
10904;SDS011;5505;51.450;9.254;2023-04-25T14:11:31;2.87;;;1.27;;
10904;SDS011;5505;51.450;9.254;2023-04-25T14:14:20;2.80;;;1.20;;
10904;SDS011;5505;51.450;9.254;2023-04-25T14:17:08;2.03;;;1.10;;
10904;SDS011;5505;51.450;9.254;2023-04-25T14:19:55;5.03;;;1.37;;
10904;SDS011;5505;51.450;9.254;2023-04-25T14:22:42;4.27;;;1.60;;
10904;SDS011;5505;51.450;9.254;2023-04-25T14:25:29;3.87;;;1.60;;
10904;SDS011;5505;51.450;9.254;2023-04-25T14:28:16;3.10;;;1.20;;
10904;SDS011;5505;51.450;9.254;2023-04-25T14:31:05;3.70;;;1.40;;
10904;SDS011;5505;51.450;9.254;2023-04-25T14:33:52;2.57;;;1.30;;
10904;SDS011;5505;51.450;9.254;2023-04-25T14:36:40;4.17;;;1.30;;
10904;SDS011;5505;51.450;9.254;2023-04-25T14:39:27;4.50;;;1.50;;
10904;SDS011;5505;51.450;9.254;2023-04-25T14:42:14;3.63;;;1.30;;
10904;SDS011;5505;51.450;9.254;2023-04-25T14:45:01;2.77;;;1.10;;
10904;SDS011;5505;51.450;9.254;2023-04-25T14:47:50;4.53;;;1.50;;
10904;SDS011;5505;51.450;9.254;2023-04-25T14:50:37;2.93;;;1.50;;
10904;SDS011;5505;51.450;9.254;2023-04-25T14:53:24;2.23;;;1.30;;
10904;SDS011;5505;51.450;9.254;2023-04-25T14:56:11;3.50;;;1.10;;
10904;SDS011;5505;51.450;9.254;2023-04-25T14:58:58;1.57;;;1.10;;
10904;SDS011;5505;51.450;9.254;2023-04-25T15:01:45;5.73;;;1.63;;
10904;SDS011;5505;51.450;9.254;2023-04-25T15:04:34;4.20;;;1.40;;
10904;SDS011;5505;51.450;9.254;2023-04-25T15:07:21;5.17;;;1.90;;
10904;SDS011;5505;51.450;9.254;2023-04-25T15:10:09;3.13;;;1.80;;
10904;SDS011;5505;51.450;9.254;2023-04-25T15:12:58;3.37;;;1.43;;
10904;SDS011;5505;51.450;9.254;2023-04-25T15:15:45;3.27;;;1.50;;
10904;SDS011;5505;51.450;9.254;2023-04-25T15:18:36;4.00;;;2.00;;
10904;SDS011;5505;51.450;9.254;2023-04-25T15:21:24;4.07;;;1.70;;
10904;SDS011;5505;51.450;9.254;2023-04-25T15:24:12;4.53;;;1.73;;
10904;SDS011;5505;51.450;9.254;2023-04-25T15:27:00;2.60;;;1.20;;
10904;SDS011;5505;51.450;9.254;2023-04-25T15:29:47;1.90;;;1.23;;
10904;SDS011;5505;51.450;9.254;2023-04-25T15:32:34;4.83;;;1.53;;
10904;SDS011;5505;51.450;9.254;2023-04-25T15:35:21;2.27;;;1.10;;
10904;SDS011;5505;51.450;9.254;2023-04-25T15:38:10;2.30;;;1.63;;
10904;SDS011;5505;51.450;9.254;2023-04-25T15:40:57;2.43;;;1.17;;
10904;SDS011;5505;51.450;9.254;2023-04-25T15:43:45;2.33;;;1.30;;
10904;SDS011;5505;51.450;9.254;2023-04-25T15:46:33;3.40;;;1.10;;
10904;SDS011;5505;51.450;9.254;2023-04-25T15:49:20;2.80;;;0.90;;
10904;SDS011;5505;51.450;9.254;2023-04-25T15:52:07;2.40;;;1.00;;
10904;SDS011;5505;51.450;9.254;2023-04-25T15:54:55;1.90;;;1.00;;
10904;SDS011;5505;51.450;9.254;2023-04-25T15:57:42;4.03;;;1.10;;
10904;SDS011;5505;51.450;9.254;2023-04-25T16:00:30;3.10;;;1.20;;
10904;SDS011;5505;51.450;9.254;2023-04-25T16:03:20;2.17;;;1.10;;
10904;SDS011;5505;51.450;9.254;2023-04-25T16:06:07;2.60;;;1.00;;
10904;SDS011;5505;51.450;9.254;2023-04-25T16:08:54;2.00;;;1.33;;
10904;SDS011;5505;51.450;9.254;2023-04-25T16:11:43;2.67;;;1.43;;
10904;SDS011;5505;51.450;9.254;2023-04-25T16:14:30;1.80;;;1.00;;
10904;SDS011;5505;51.450;9.254;2023-04-25T16:17:18;4.07;;;1.40;;
10904;SDS011;5505;51.450;9.254;2023-04-25T16:20:06;5.60;;;1.90;;
10904;SDS011;5505;51.450;9.254;2023-04-25T16:22:54;3.13;;;1.17;;
10904;SDS011;5505;51.450;9.254;2023-04-25T16:25:41;1.63;;;1.10;;
10904;SDS011;5505;51.450;9.254;2023-04-25T16:28:30;4.90;;;1.37;;
10904;SDS011;5505;51.450;9.254;2023-04-25T16:31:17;3.27;;;1.23;;
10904;SDS011;5505;51.450;9.254;2023-04-25T16:34:04;4.10;;;1.27;;
10904;SDS011;5505;51.450;9.254;2023-04-25T16:36:51;3.37;;;1.17;;
10904;SDS011;5505;51.450;9.254;2023-04-25T16:39:38;3.07;;;1.30;;
10904;SDS011;5505;51.450;9.254;2023-04-25T16:42:25;3.43;;;1.37;;
10904;SDS011;5505;51.450;9.254;2023-04-25T16:45:14;5.60;;;1.20;;
10904;SDS011;5505;51.450;9.254;2023-04-25T16:48:04;3.27;;;0.97;;
10904;SDS011;5505;51.450;9.254;2023-04-25T16:50:51;4.33;;;1.23;;
10904;SDS011;5505;51.450;9.254;2023-04-25T16:53:38;3.80;;;1.30;;
10904;SDS011;5505;51.450;9.254;2023-04-25T16:56:25;1.83;;;1.00;;
10904;SDS011;5505;51.450;9.254;2023-04-25T16:59:12;3.67;;;1.23;;
10904;SDS011;5505;51.450;9.254;2023-04-25T17:02:01;3.50;;;1.30;;